sensor_id;sensor_type;location;lat;lon;timestamp;P1;durP1;ratioP1;P2;durP2;ratioP2
12308;SDS011;6217;48.150;17.142;2023-05-10T13:43:34;8.68;;;1.20;;
12308;SDS011;6217;48.150;17.142;2023-05-10T13:47:41;4.55;;;1.00;;
12308;SDS011;6217;48.150;17.142;2023-05-10T13:51:47;3.45;;;0.70;;
12308;SDS011;6217;48.150;17.142;2023-05-10T13:55:53;3.38;;;1.58;;
12308;SDS011;6217;48.150;17.142;2023-05-10T13:59:59;3.90;;;0.90;;
12308;SDS011;6217;48.150;17.142;2023-05-10T14:04:05;3.90;;;0.95;;
12308;SDS011;6217;48.150;17.142;2023-05-10T14:08:12;3.67;;;0.88;;
12308;SDS011;6217;48.150;17.142;2023-05-10T14:12:18;2.55;;;0.90;;
12308;SDS011;6217;48.150;17.142;2023-05-10T14:16:24;4.90;;;0.75;;
12308;SDS011;6217;48.150;17.142;2023-05-10T14:20:30;3.35;;;1.20;;
12308;SDS011;6217;48.150;17.142;2023-05-10T14:24:37;2.63;;;1.10;;
12308;SDS011;6217;48.150;17.142;2023-05-10T14:28:43;1.13;;;0.90;;
12308;SDS011;6217;48.150;17.142;2023-05-10T14:32:49;3.85;;;1.38;;
12308;SDS011;6217;48.150;17.142;2023-05-10T14:36:55;1.00;;;0.90;;
12308;SDS011;6217;48.150;17.142;2023-05-10T14:41:01;2.20;;;1.15;;
12308;SDS011;6217;48.150;17.142;2023-05-10T14:45:07;4.57;;;0.90;;
12308;SDS011;6217;48.150;17.142;2023-05-10T14:49:14;3.92;;;0.70;;
12308;SDS011;6217;48.150;17.142;2023-05-10T14:53:20;1.60;;;0.70;;
12308;SDS011;6217;48.150;17.142;2023-05-10T14:57:26;1.40;;;1.10;;
12308;SDS011;6217;48.150;17.142;2023-05-10T15:01:34;1.35;;;0.90;;
12308;SDS011;6217;48.150;17.142;2023-05-10T15:05:42;4.72;;;0.90;;
12308;SDS011;6217;48.150;17.142;2023-05-10T15:09:49;2.88;;;1.00;;
12308;SDS011;6217;48.150;17.142;2023-05-10T15:13:56;1.45;;;0.90;;
12308;SDS011;6217;48.150;17.142;2023-05-10T15:18:02;4.07;;;1.10;;
12308;SDS011;6217;48.150;17.142;2023-05-10T15:22:09;1.00;;;0.85;;
12308;SDS011;6217;48.150;17.142;2023-05-10T15:26:15;4.60;;;1.15;;
12308;SDS011;6217;48.150;17.142;2023-05-10T15:30:21;2.42;;;0.98;;
12308;SDS011;6217;48.150;17.142;2023-05-10T15:34:27;1.13;;;1.00;;
12308;SDS011;6217;48.150;17.142;2023-05-10T15:38:33;3.92;;;1.10;;
12308;SDS011;6217;48.150;17.142;2023-05-10T15:42:39;3.08;;;1.20;;
12308;SDS011;6217;48.150;17.142;2023-05-10T15:46:45;1.75;;;0.90;;
12308;SDS011;6217;48.150;17.142;2023-05-10T15:50:51;1.15;;;1.05;;
12308;SDS011;6217;48.150;17.142;2023-05-10T15:54:56;1.33;;;1.00;;
12308;SDS011;6217;48.150;17.142;2023-05-10T15:59:02;0.88;;;0.88;;
12308;SDS011;6217;48.150;17.142;2023-05-10T16:03:10;2.17;;;0.90;;
12308;SDS011;6217;48.150;17.142;2023-05-10T16:07:16;2.45;;;0.98;;
12308;SDS011;6217;48.150;17.142;2023-05-10T16:11:22;9.20;;;2.08;;
12308;SDS011;6217;48.150;17.142;2023-05-10T16:15:28;6.03;;;1.05;;
12308;SDS011;6217;48.150;17.142;2023-05-10T16:19:34;1.73;;;1.00;;
12308;SDS011;6217;48.150;17.142;2023-05-10T16:23:40;1.77;;;0.80;;
12308;SDS011;6217;48.150;17.142;2023-05-10T16:27:46;0.85;;;0.80;;
12308;SDS011;6217;48.150;17.142;2023-05-10T16:31:52;4.18;;;0.98;;
12308;SDS011;6217;48.150;17.142;2023-05-10T16:35:58;6.40;;;0.95;;
12308;SDS011;6217;48.150;17.142;2023-05-10T16:40:04;3.35;;;0.90;;
12308;SDS011;6217;48.150;17.142;2023-05-10T16:44:11;3.50;;;1.05;;
12308;SDS011;6217;48.150;17.142;2023-05-10T16:48:17;3.75;;;0.90;;
12308;SDS011;6217;48.150;17.142;2023-05-10T16:52:23;2.97;;;0.95;;
12308;SDS011;6217;48.150;17.142;2023-05-10T16:56:28;1.08;;;0.80;;
12308;SDS011;6217;48.150;17.142;2023-05-10T17:00:34;2.78;;;1.08;;
12308;SDS011;6217;48.150;17.142;2023-05-10T17:04:41;1.95;;;1.35;;
12308;SDS011;6217;48.150;17.142;2023-05-10T17:08:47;2.20;;;0.93;;
12308;SDS011;6217;48.150;17.142;2023-05-10T17:12:53;3.10;;;1.13;;
12308;SDS011;6217;48.150;17.142;2023-05-10T17:16:59;0.68;;;0.68;;
12308;SDS011;6217;48.150;17.142;2023-05-10T17:21:05;2.45;;;0.75;;
12308;SDS011;6217;48.150;17.142;2023-05-10T17:25:10;1.10;;;0.90;;
12308;SDS011;6217;48.150;17.142;2023-05-10T17:29:16;2.60;;;0.93;;
12308;SDS011;6217;48.150;17.142;2023-05-10T17:33:22;3.42;;;1.08;;
12308;SDS011;6217;48.150;17.142;2023-05-10T17:37:28;0.70;;;0.70;;
12308;SDS011;6217;48.150;17.142;2023-05-10T17:41:34;2.75;;;1.10;;
12308;SDS011;6217;48.150;17.142;2023-05-10T17:45:40;3.30;;;0.95;;
12308;SDS011;6217;48.150;17.142;2023-05-10T17:49:46;1.27;;;0.82;;
12308;SDS011;6217;48.150;17.142;2023-05-10T17:53:52;1.35;;;0.80;;
12308;SDS011;6217;48.150;17.142;2023-05-10T17:57:58;1.77;;;0.85;;
12308;SDS011;6217;48.150;17.142;2023-05-10T18:02:04;3.25;;;1.00;;
12308;SDS011;6217;48.150;17.142;2023-05-10T18:06:10;0.95;;;0.90;;
12308;SDS011;6217;48.150;17.142;2023-05-10T18:10:16;3.17;;;0.88;;
12308;SDS011;6217;48.150;17.142;2023-05-10T18:14:22;4.25;;;1.15;;
12308;SDS011;6217;48.150;17.142;2023-05-10T18:18:28;4.20;;;1.67;;
12308;SDS011;6217;48.150;17.142;2023-05-10T18:22:34;5.28;;;1.10;;
12308;SDS011;6217;48.150;17.142;2023-05-10T18:26:40;6.53;;;0.95;;
12308;SDS011;6217;48.150;17.142;2023-05-10T18:30:47;1.30;;;1.20;;
12308;SDS011;6217;48.150;17.142;2023-05-10T18:34:53;1.27;;;0.90;;
12308;SDS011;6217;48.150;17.142;2023-05-10T18:39:00;1.10;;;0.90;;
12308;SDS011;6217;48.150;17.142;2023-05-10T18:43:06;2.47;;;0.98;;
12308;SDS011;6217;48.150;17.142;2023-05-10T18:47:13;4.63;;;1.20;;
12308;SDS011;6217;48.150;17.142;2023-05-10T18:51:19;3.33;;;1.20;;
12308;SDS011;6217;48.150;17.142;2023-05-10T18:55:26;1.98;;;1.40;;
12308;SDS011;6217;48.150;17.142;2023-05-10T18:59:32;3.13;;;1.65;;
12308;SDS011;6217;48.150;17.142;2023-05-10T19:03:38;2.65;;;1.40;;
12308;SDS011;6217;48.150;17.142;2023-05-10T19:07:44;4.72;;;2.42;;
12308;SDS011;6217;48.150;17.142;2023-05-10T19:11:50;1.73;;;1.55;;
12308;SDS011;6217;48.150;17.142;2023-05-10T19:16:03;4.97;;;1.38;;
12308;SDS011;6217;48.150;17.142;2023-05-10T19:20:22;2.67;;;1.40;;
12308;SDS011;6217;48.150;17.142;2023-05-10T19:24:28;2.58;;;1.50;;
12308;SDS011;6217;48.150;17.142;2023-05-10T19:28:34;4.25;;;1.35;;
12308;SDS011;6217;48.150;17.142;2023-05-10T19:32:40;4.15;;;1.33;;
12308;SDS011;6217;48.150;17.142;2023-05-10T19:36:48;5.05;;;1.20;;
12308;SDS011;6217;48.150;17.142;2023-05-10T19:40:54;4.18;;;1.52;;
12308;SDS011;6217;48.150;17.142;2023-05-10T19:45:02;3.50;;;1.30;;
12308;SDS011;6217;48.150;17.142;2023-05-10T19:49:08;4.28;;;1.20;;
12308;SDS011;6217;48.150;17.142;2023-05-10T19:53:14;3.22;;;1.00;;
12308;SDS011;6217;48.150;17.142;2023-05-10T19:57:20;1.00;;;0.90;;
12308;SDS011;6217;48.150;17.142;2023-05-10T20:01:26;1.73;;;1.08;;
12308;SDS011;6217;48.150;17.142;2023-05-10T20:05:32;1.80;;;1.08;;
12308;SDS011;6217;48.150;17.142;2023-05-10T20:09:38;2.55;;;1.10;;
12308;SDS011;6217;48.150;17.142;2023-05-10T20:13:44;1.92;;;1.30;;
12308;SDS011;6217;48.150;17.142;2023-05-10T20:17:50;2.78;;;1.55;;
12308;SDS011;6217;48.150;17.142;2023-05-10T20:21:59;2.30;;;1.75;;
12308;SDS011;6217;48.150;17.142;2023-05-10T20:26:05;1.45;;;1.27;;
12308;SDS011;6217;48.150;17.142;2023-05-10T20:30:11;2.35;;;1.05;;
12308;SDS011;6217;48.150;17.142;2023-05-10T20:34:17;2.90;;;1.40;;
12308;SDS011;6217;48.150;17.142;2023-05-10T20:38:23;2.22;;;1.20;;
12308;SDS011;6217;48.150;17.142;2023-05-10T20:42:29;4.88;;;1.20;;
12308;SDS011;6217;48.150;17.142;2023-05-10T20:46:35;1.40;;;1.30;;
12308;SDS011;6217;48.150;17.142;2023-05-10T20:50:41;2.38;;;1.40;;
12308;SDS011;6217;48.150;17.142;2023-05-10T20:54:47;3.08;;;1.50;;
12308;SDS011;6217;48.150;17.142;2023-05-10T20:58:53;1.35;;;1.17;;
12308;SDS011;6217;48.150;17.142;2023-05-10T21:02:59;4.88;;;1.77;;
12308;SDS011;6217;48.150;17.142;2023-05-10T21:07:05;3.53;;;1.48;;
12308;SDS011;6217;48.150;17.142;2023-05-10T21:11:11;1.90;;;1.33;;
12308;SDS011;6217;48.150;17.142;2023-05-10T21:15:17;2.40;;;1.50;;
12308;SDS011;6217;48.150;17.142;2023-05-10T21:19:23;1.17;;;1.00;;
12308;SDS011;6217;48.150;17.142;2023-05-10T21:23:29;1.95;;;1.38;;
12308;SDS011;6217;48.150;17.142;2023-05-10T21:27:34;1.65;;;1.40;;
12308;SDS011;6217;48.150;17.142;2023-05-10T21:31:41;1.42;;;1.33;;
12308;SDS011;6217;48.150;17.142;2023-05-10T21:35:46;3.17;;;1.75;;
12308;SDS011;6217;48.150;17.142;2023-05-10T21:39:52;1.45;;;1.35;;
12308;SDS011;6217;48.150;17.142;2023-05-10T21:43:58;1.73;;;1.40;;
12308;SDS011;6217;48.150;17.142;2023-05-10T21:48:04;2.65;;;1.48;;
12308;SDS011;6217;48.150;17.142;2023-05-10T21:52:10;1.60;;;1.50;;
12308;SDS011;6217;48.150;17.142;2023-05-10T21:56:16;3.53;;;1.70;;
12308;SDS011;6217;48.150;17.142;2023-05-10T22:00:22;2.90;;;1.77;;
12308;SDS011;6217;48.150;17.142;2023-05-10T22:04:39;3.78;;;1.90;;
12308;SDS011;6217;48.150;17.142;2023-05-10T22:08:45;2.15;;;1.70;;
12308;SDS011;6217;48.150;17.142;2023-05-10T22:12:51;5.95;;;3.13;;
12308;SDS011;6217;48.150;17.142;2023-05-10T22:16:57;2.42;;;2.03;;
12308;SDS011;6217;48.150;17.142;2023-05-10T22:21:03;3.88;;;1.70;;
12308;SDS011;6217;48.150;17.142;2023-05-10T22:25:09;2.80;;;1.60;;
12308;SDS011;6217;48.150;17.142;2023-05-10T22:29:15;2.28;;;1.83;;
12308;SDS011;6217;48.150;17.142;2023-05-10T22:33:21;1.80;;;1.50;;
12308;SDS011;6217;48.150;17.142;2023-05-10T22:37:27;2.15;;;1.50;;
12308;SDS011;6217;48.150;17.142;2023-05-10T22:41:33;5.35;;;1.52;;
12308;SDS011;6217;48.150;17.142;2023-05-10T22:45:39;3.55;;;1.50;;
12308;SDS011;6217;48.150;17.142;2023-05-10T22:49:44;3.63;;;1.70;;
12308;SDS011;6217;48.150;17.142;2023-05-10T22:53:51;3.08;;;2.30;;
12308;SDS011;6217;48.150;17.142;2023-05-10T22:57:57;2.45;;;1.40;;
12308;SDS011;6217;48.150;17.142;2023-05-10T23:02:03;4.65;;;1.75;;
12308;SDS011;6217;48.150;17.142;2023-05-10T23:06:09;3.13;;;1.80;;
12308;SDS011;6217;48.150;17.142;2023-05-10T23:10:15;1.92;;;1.73;;
12308;SDS011;6217;48.150;17.142;2023-05-10T23:14:22;2.95;;;1.70;;
12308;SDS011;6217;48.150;17.142;2023-05-10T23:18:28;4.18;;;1.75;;
12308;SDS011;6217;48.150;17.142;2023-05-10T23:22:34;4.20;;;1.70;;
12308;SDS011;6217;48.150;17.142;2023-05-10T23:26:40;2.25;;;1.80;;
12308;SDS011;6217;48.150;17.142;2023-05-10T23:30:52;2.65;;;1.60;;
12308;SDS011;6217;48.150;17.142;2023-05-10T23:35:02;4.63;;;1.70;;
12308;SDS011;6217;48.150;17.142;2023-05-10T23:39:08;2.33;;;1.80;;
12308;SDS011;6217;48.150;17.142;2023-05-10T23:43:15;2.97;;;2.38;;
12308;SDS011;6217;48.150;17.142;2023-05-10T23:47:21;2.13;;;1.80;;
12308;SDS011;6217;48.150;17.142;2023-05-10T23:51:27;7.07;;;2.10;;
12308;SDS011;6217;48.150;17.142;2023-05-10T23:55:33;2.92;;;1.90;;
12308;SDS011;6217;48.150;17.142;2023-05-10T23:59:39;3.28;;;1.90;;
